Perry, New York
Current Conditions -  °F | °C
As of 9:17 AM on Sunday 21 Dec 2014 (Local Time) from KDSV Reporting Station
Overcast Overcast  
Wind Chill: 31°   Ceiling: 3000
Heat Index: 31°   Visibility: 10mi
Dew Point: 23°   Wind: 0mph
Humidity: 72%   Direction: NA
Pressure: 30.31"   Gusts: NA
Location:  42.72°N, 78.01°W
Report Text: KDSV 211417Z AUTO 00000KT 10SM OVC030 M01/M05 A3031 RMK AO2 T10061050
Loading
Personal Weather Stations






























Interactive Weather Map New forecast layout! Learn more

10-Day Weather Forecast

Advertisements
Track Severe Weather on mobile